Time;durP1;ratioP1;P1;durP2;ratioP2;P2;SDS_P1;SDS_P2;PMS_P1;PMS_P2;Temp;Humidity;BMP_temperature;BMP_pressure;BME280_temperature;BME280_humidity;BME280_pressure;Samples;Min_cycle;Max_cycle;Signal;HPM_P1;HPM_P2
2022/09/02 00:01:11;;;;;;;10.10;4.45;;;;;;;;;;4753855;30;20042;-70
2022/09/02 00:03:37;;;;;;;4.55;3.75;;;;;;;;;;4753985;30;20509;-69
2022/09/02 00:06:04;;;;;;;5.78;4.45;;;;;;;;;;4754092;30;20024;-69
2022/09/02 00:08:30;;;;;;;7.10;4.35;;;;;;;;;;4753887;30;20410;-69
2022/09/02 00:10:59;;;;;;;7.00;4.32;;;;;;;;;;4753859;30;20379;-69
2022/09/02 00:13:26;;;;;;;6.97;4.40;;;;;;;;;;4753632;30;20413;-69
2022/09/02 00:15:52;;;;;;;6.90;4.55;;;;;;;;;;4753934;30;20031;-70
2022/09/02 00:18:19;;;;;;;5.07;4.07;;;;;;;;;;4753804;30;20058;-70
2022/09/02 00:20:47;;;;;;;7.25;4.38;;;;;;;;;;4753892;30;20068;-69
2022/09/02 00:23:14;;;;;;;9.98;4.20;;;;;;;;;;4753929;30;20043;-70
2022/09/02 00:25:41;;;;;;;6.43;4.30;;;;;;;;;;4753667;30;20024;-69
2022/09/02 00:28:07;;;;;;;9.00;4.47;;;;;;;;;;4753368;30;20517;-69
2022/09/02 00:30:34;;;;;;;11.10;4.45;;;;;;;;;;4753509;30;20034;-70
2022/09/02 00:33:00;;;;;;;10.18;4.30;;;;;;;;;;4753449;30;20032;-69
2022/09/02 00:35:27;;;;;;;6.95;4.07;;;;;;;;;;4753450;30;20040;-69
2022/09/02 00:37:54;;;;;;;5.85;4.07;;;;;;;;;;4753464;30;20029;-70
2022/09/02 00:40:22;;;;;;;5.53;4.30;;;;;;;;;;4753381;30;20487;-69
2022/09/02 00:42:49;;;;;;;4.80;4.30;;;;;;;;;;4753022;30;20523;-69
2022/09/02 00:45:17;;;;;;;4.80;4.13;;;;;;;;;;4753584;30;20390;-69
2022/09/02 00:47:44;;;;;;;6.13;4.28;;;;;;;;;;4752222;30;20036;-69
2022/09/02 00:50:12;;;;;;;5.93;4.38;;;;;;;;;;4752011;30;20487;-69
2022/09/02 00:52:41;;;;;;;5.70;4.32;;;;;;;;;;4753277;30;20039;-68
2022/09/02 00:55:10;;;;;;;5.35;3.85;;;;;;;;;;4752818;30;20042;-69
2022/09/02 00:57:38;;;;;;;7.95;4.45;;;;;;;;;;4752855;30;20039;-69
2022/09/02 01:00:08;;;;;;;4.72;3.78;;;;;;;;;;4753068;30;20036;-69
2022/09/02 01:02:36;;;;;;;11.50;4.78;;;;;;;;;;4752775;30;20072;-69
2022/09/02 01:05:03;;;;;;;6.80;4.22;;;;;;;;;;4752769;30;20050;-69
2022/09/02 01:07:32;;;;;;;6.32;4.50;;;;;;;;;;4752958;30;20020;-69
2022/09/02 01:10:00;;;;;;;5.70;4.47;;;;;;;;;;4781359;30;20040;-69
2022/09/02 01:12:28;;;;;;;8.60;4.25;;;;;;;;;;4752480;30;20038;-68
2022/09/02 01:14:55;;;;;;;6.35;4.10;;;;;;;;;;4752997;30;20044;-69
2022/09/02 01:17:21;;;;;;;4.82;4.20;;;;;;;;;;4752823;30;20059;-69
2022/09/02 01:19:50;;;;;;;6.25;4.32;;;;;;;;;;4752871;30;20036;-69
2022/09/02 01:22:21;;;;;;;5.55;4.05;;;;;;;;;;4752734;30;20044;-69
2022/09/02 01:24:47;;;;;;;7.22;4.40;;;;;;;;;;4752636;30;20038;-69
2022/09/02 01:27:17;;;;;;;6.47;4.60;;;;;;;;;;4751743;30;20116;-70
2022/09/02 01:29:44;;;;;;;7.05;4.40;;;;;;;;;;4752357;30;20051;-69
2022/09/02 01:32:11;;;;;;;6.22;4.45;;;;;;;;;;4752486;30;20085;-70
2022/09/02 01:34:37;;;;;;;8.52;4.82;;;;;;;;;;4752756;30;20037;-69
2022/09/02 01:37:04;;;;;;;8.82;5.13;;;;;;;;;;4752495;30;20036;-69
2022/09/02 01:39:30;;;;;;;8.95;4.40;;;;;;;;;;4752595;30;20028;-69
2022/09/02 01:41:56;;;;;;;9.82;4.22;;;;;;;;;;4751974;30;20042;-69
2022/09/02 01:44:25;;;;;;;5.32;4.38;;;;;;;;;;4752197;30;20033;-69
2022/09/02 01:46:52;;;;;;;8.30;4.68;;;;;;;;;;4752428;30;20036;-70
2022/09/02 01:49:18;;;;;;;6.63;4.38;;;;;;;;;;4752103;30;20401;-70
2022/09/02 01:51:45;;;;;;;5.30;4.68;;;;;;;;;;4752092;30;20035;-69
2022/09/02 01:54:11;;;;;;;6.60;4.60;;;;;;;;;;4762654;30;20037;-69
2022/09/02 01:56:37;;;;;;;5.40;4.68;;;;;;;;;;4734068;30;20414;-69
2022/09/02 01:59:06;;;;;;;6.63;4.47;;;;;;;;;;4734802;30;20033;-69
2022/09/02 02:01:33;;;;;;;5.97;4.80;;;;;;;;;;4734282;30;20051;-69
2022/09/02 02:04:00;;;;;;;7.43;4.53;;;;;;;;;;4734340;30;20035;-69
2022/09/02 02:06:27;;;;;;;8.82;4.53;;;;;;;;;;4734492;30;20043;-69
2022/09/02 02:08:53;;;;;;;8.60;4.78;;;;;;;;;;4733842;30;20031;-68
2022/09/02 02:11:21;;;;;;;4.82;4.13;;;;;;;;;;4734275;30;20041;-69
2022/09/02 02:13:47;;;;;;;7.22;4.47;;;;;;;;;;4734173;30;20028;-69
2022/09/02 02:16:14;;;;;;;9.45;4.22;;;;;;;;;;4734451;30;20037;-70
2022/09/02 02:18:40;;;;;;;7.40;4.43;;;;;;;;;;4733984;30;20049;-69
2022/09/02 02:21:06;;;;;;;6.28;4.50;;;;;;;;;;4734031;30;20048;-69
2022/09/02 02:23:33;;;;;;;6.30;4.60;;;;;;;;;;4734143;30;20037;-69
2022/09/02 02:25:59;;;;;;;7.47;4.63;;;;;;;;;;4734190;30;20039;-69
2022/09/02 02:28:25;;;;;;;6.97;4.40;;;;;;;;;;4734200;30;20132;-69
2022/09/02 02:30:52;;;;;;;6.90;4.68;;;;;;;;;;4733855;30;20386;-69
2022/09/02 02:33:19;;;;;;;7.22;4.88;;;;;;;;;;4734061;30;20032;-69
2022/09/02 02:35:45;;;;;;;7.82;4.18;;;;;;;;;;4733883;30;20043;-69
2022/09/02 02:38:12;;;;;;;6.82;4.40;;;;;;;;;;4733154;30;20024;-69
2022/09/02 02:40:38;;;;;;;5.80;4.22;;;;;;;;;;4733848;30;20518;-69
2022/09/02 02:43:04;;;;;;;6.78;4.88;;;;;;;;;;4734046;30;20475;-69
2022/09/02 02:45:31;;;;;;;10.55;4.80;;;;;;;;;;4734060;30;20093;-69
2022/09/02 02:47:57;;;;;;;6.10;4.35;;;;;;;;;;4733722;30;20039;-69
2022/09/02 02:50:24;;;;;;;8.40;4.78;;;;;;;;;;4733802;30;20033;-69
2022/09/02 02:52:53;;;;;;;6.60;4.57;;;;;;;;;;4733542;30;20055;-69
2022/09/02 02:55:20;;;;;;;8.05;5.10;;;;;;;;;;4748126;30;20028;-70
2022/09/02 02:57:46;;;;;;;7.95;4.80;;;;;;;;;;4751433;30;20038;-69
2022/09/02 03:00:18;;;;;;;5.35;4.65;;;;;;;;;;4751294;30;20085;-70
2022/09/02 03:02:44;;;;;;;7.05;4.88;;;;;;;;;;4751402;30;20040;-70
2022/09/02 03:05:12;;;;;;;8.15;4.65;;;;;;;;;;4751330;30;20499;-69
2022/09/02 03:07:39;;;;;;;8.32;4.57;;;;;;;;;;4779351;30;20108;-69
2022/09/02 03:10:09;;;;;;;7.65;4.72;;;;;;;;;;4764855;30;20045;-69
2022/09/02 03:12:37;;;;;;;6.23;4.40;;;;;;;;;;4751377;30;20028;-69
2022/09/02 03:15:04;;;;;;;8.27;5.15;;;;;;;;;;4751171;30;20298;-69
2022/09/02 03:17:31;;;;;;;5.07;4.47;;;;;;;;;;4750934;30;20048;-70
2022/09/02 03:19:58;;;;;;;7.80;5.47;;;;;;;;;;4750239;30;20040;-68
2022/09/02 03:22:25;;;;;;;9.75;4.80;;;;;;;;;;4749617;30;20518;-69
2022/09/02 03:24:51;;;;;;;7.18;4.85;;;;;;;;;;4751241;30;20036;-69
2022/09/02 03:27:18;;;;;;;7.60;4.50;;;;;;;;;;4751025;30;20039;-69
2022/09/02 03:29:44;;;;;;;7.28;4.45;;;;;;;;;;4751126;30;20035;-69
2022/09/02 03:32:11;;;;;;;6.97;5.18;;;;;;;;;;4751112;30;20040;-69
2022/09/02 03:34:37;;;;;;;7.13;5.20;;;;;;;;;;4751081;30;20401;-69
2022/09/02 03:37:03;;;;;;;11.13;5.40;;;;;;;;;;4751080;30;20036;-69
2022/09/02 03:39:30;;;;;;;6.85;4.53;;;;;;;;;;4751002;30;20040;-69
2022/09/02 03:41:56;;;;;;;6.70;4.70;;;;;;;;;;4750856;30;20050;-69
2022/09/02 03:44:22;;;;;;;7.38;5.18;;;;;;;;;;4751183;30;20039;-69
2022/09/02 03:46:49;;;;;;;8.90;5.15;;;;;;;;;;4751057;30;20505;-69
2022/09/02 03:49:15;;;;;;;8.48;5.00;;;;;;;;;;4752034;30;20036;-69
2022/09/02 03:51:42;;;;;;;5.80;4.90;;;;;;;;;;4753924;30;20036;-69
2022/09/02 03:54:09;;;;;;;7.40;4.93;;;;;;;;;;4753907;30;20431;-69
2022/09/02 03:56:35;;;;;;;9.73;5.68;;;;;;;;;;4754095;30;20036;-69
2022/09/02 03:59:03;;;;;;;11.55;5.07;;;;;;;;;;4753941;30;20042;-69
2022/09/02 04:01:29;;;;;;;7.45;5.00;;;;;;;;;;4754293;30;20050;-69
2022/09/02 04:03:55;;;;;;;9.70;5.35;;;;;;;;;;4754208;30;20036;-69
2022/09/02 04:06:24;;;;;;;6.85;5.18;;;;;;;;;;4753564;30;20028;-69
2022/09/02 04:08:51;;;;;;;10.77;4.80;;;;;;;;;;4754171;30;20031;-69
2022/09/02 04:11:19;;;;;;;7.38;4.93;;;;;;;;;;4753881;30;20410;-69
2022/09/02 04:13:46;;;;;;;6.22;5.30;;;;;;;;;;4754071;30;20032;-69
2022/09/02 04:16:13;;;;;;;5.85;5.07;;;;;;;;;;4753914;30;20032;-69
2022/09/02 04:18:40;;;;;;;10.98;5.00;;;;;;;;;;4753648;30;20509;-69
2022/09/02 04:21:07;;;;;;;9.00;5.55;;;;;;;;;;4753735;30;20128;-69
2022/09/02 04:23:33;;;;;;;8.48;5.65;;;;;;;;;;4753728;30;20418;-69
2022/09/02 04:26:03;;;;;;;9.00;4.85;;;;;;;;;;4753682;30;20024;-70
2022/09/02 04:28:30;;;;;;;9.27;5.43;;;;;;;;;;4753563;30;20414;-70
2022/09/02 04:30:56;;;;;;;5.65;4.93;;;;;;;;;;4781947;30;20101;-70
2022/09/02 04:33:22;;;;;;;6.72;5.03;;;;;;;;;;4753639;30;20028;-70
2022/09/02 04:35:49;;;;;;;6.68;4.78;;;;;;;;;;4753242;30;20032;-70
2022/09/02 04:38:16;;;;;;;8.05;5.15;;;;;;;;;;4753452;30;20029;-70
2022/09/02 04:40:43;;;;;;;8.23;5.60;;;;;;;;;;4753591;30;20033;-70
2022/09/02 04:43:10;;;;;;;8.27;5.63;;;;;;;;;;4752082;30;20036;-70
2022/09/02 04:45:39;;;;;;;7.00;5.10;;;;;;;;;;4753694;30;20039;-70
2022/09/02 04:48:06;;;;;;;7.55;5.35;;;;;;;;;;4753393;30;20031;-70
2022/09/02 04:50:32;;;;;;;8.05;5.50;;;;;;;;;;4752895;30;20043;-70
2022/09/02 04:52:58;;;;;;;6.60;5.15;;;;;;;;;;4753169;30;20491;-70
2022/09/02 04:55:25;;;;;;;5.85;5.10;;;;;;;;;;4752951;30;20036;-70
2022/09/02 04:57:51;;;;;;;7.00;5.25;;;;;;;;;;4753007;30;20032;-70
2022/09/02 05:00:18;;;;;;;10.02;6.03;;;;;;;;;;4752794;30;20038;-70
2022/09/02 05:02:44;;;;;;;9.10;5.65;;;;;;;;;;4752693;30;20503;-70
2022/09/02 05:05:11;;;;;;;9.48;5.50;;;;;;;;;;4752675;30;20046;-70
2022/09/02 05:07:38;;;;;;;8.50;5.30;;;;;;;;;;4752884;30;20038;-69
2022/09/02 05:10:05;;;;;;;8.68;6.00;;;;;;;;;;4753026;30;20032;-70
2022/09/02 05:12:33;;;;;;;10.63;5.35;;;;;;;;;;4752846;30;20036;-70
2022/09/02 05:15:00;;;;;;;7.93;5.53;;;;;;;;;;4752778;30;20085;-70
2022/09/02 05:17:27;;;;;;;9.70;5.57;;;;;;;;;;4752244;30;20498;-69
2022/09/02 05:19:53;;;;;;;6.57;5.50;;;;;;;;;;4752927;30;20055;-70
2022/09/02 05:22:20;;;;;;;9.27;5.70;;;;;;;;;;4753109;30;20044;-70
2022/09/02 05:24:46;;;;;;;10.07;5.88;;;;;;;;;;4752728;30;20482;-70
2022/09/02 05:27:15;;;;;;;6.45;5.40;;;;;;;;;;4766186;30;20036;-70
2022/09/02 05:29:41;;;;;;;8.13;6.18;;;;;;;;;;4752728;30;20028;-70
2022/09/02 05:32:07;;;;;;;8.20;5.93;;;;;;;;;;4752544;30;20036;-70
2022/09/02 05:34:34;;;;;;;8.50;5.80;;;;;;;;;;4752782;30;20032;-70
2022/09/02 05:37:01;;;;;;;8.07;5.53;;;;;;;;;;4752438;30;20039;-70
2022/09/02 05:39:29;;;;;;;6.63;5.47;;;;;;;;;;4752902;30;20039;-70
2022/09/02 05:41:56;;;;;;;11.43;5.50;;;;;;;;;;4752372;30;20063;-70
2022/09/02 05:44:22;;;;;;;9.65;6.00;;;;;;;;;;4752443;30;20435;-70
2022/09/02 05:46:49;;;;;;;11.57;5.53;;;;;;;;;;4752462;30;20035;-70
2022/09/02 05:49:20;;;;;;;6.93;5.53;;;;;;;;;;4752440;30;20032;-70
2022/09/02 05:51:48;;;;;;;7.78;5.85;;;;;;;;;;4752232;30;20054;-70
2022/09/02 05:54:20;;;;;;;8.40;5.68;;;;;;;;;;4752342;30;20032;-70
2022/09/02 05:56:48;;;;;;;11.00;5.68;;;;;;;;;;4752103;30;20487;-70
2022/09/02 05:59:15;;;;;;;8.55;5.80;;;;;;;;;;4752052;30;20494;-70
2022/09/02 06:01:42;;;;;;;9.93;5.82;;;;;;;;;;4751660;30;20043;-69
2022/09/02 06:04:08;;;;;;;10.73;6.15;;;;;;;;;;4752077;30;20032;-70
2022/09/02 06:06:37;;;;;;;8.15;5.82;;;;;;;;;;4748751;30;20028;-70
2022/09/02 06:09:06;;;;;;;7.15;5.63;;;;;;;;;;4746525;30;20038;-68
2022/09/02 06:11:33;;;;;;;11.88;6.53;;;;;;;;;;4748001;30;20038;-70
2022/09/02 06:13:59;;;;;;;9.50;6.32;;;;;;;;;;4749505;30;20032;-67
2022/09/02 06:16:26;;;;;;;10.27;5.70;;;;;;;;;;4751580;30;20025;-65
2022/09/02 06:18:52;;;;;;;10.65;5.90;;;;;;;;;;4751248;30;20062;-66
2022/09/02 06:21:19;;;;;;;10.35;5.90;;;;;;;;;;4751214;30;20048;-65
2022/09/02 06:23:46;;;;;;;15.05;5.75;;;;;;;;;;4751196;30;20025;-66
2022/09/02 06:26:13;;;;;;;7.85;5.93;;;;;;;;;;4751000;30;20379;-67
2022/09/02 06:28:39;;;;;;;6.45;5.28;;;;;;;;;;4749835;30;20036;-65
2022/09/02 06:31:07;;;;;;;17.52;6.28;;;;;;;;;;4733571;30;20031;-66
2022/09/02 06:33:33;;;;;;;8.65;5.07;;;;;;;;;;4740468;30;20028;-67
2022/09/02 06:36:00;;;;;;;10.95;5.82;;;;;;;;;;4744168;30;20032;-66
2022/09/02 06:38:26;;;;;;;12.98;5.70;;;;;;;;;;4733991;30;20024;-66
2022/09/02 06:40:55;;;;;;;8.82;5.45;;;;;;;;;;4733730;30;20040;-67
2022/09/02 06:43:21;;;;;;;13.68;5.50;;;;;;;;;;4734177;30;20051;-66
2022/09/02 06:45:47;;;;;;;13.73;5.82;;;;;;;;;;4744558;30;20062;-67
2022/09/02 06:48:14;;;;;;;13.48;5.32;;;;;;;;;;4749194;30;20040;-66
2022/09/02 06:50:44;;;;;;;6.97;5.07;;;;;;;;;;4750920;30;20024;-66
2022/09/02 06:53:11;;;;;;;5.50;4.85;;;;;;;;;;4750530;30;20483;-67
2022/09/02 06:55:38;;;;;;;7.85;5.22;;;;;;;;;;4763998;30;20083;-66
2022/09/02 06:58:04;;;;;;;8.85;4.90;;;;;;;;;;4740624;30;20035;-67
2022/09/02 07:00:31;;;;;;;14.18;5.10;;;;;;;;;;4739811;30;20059;-67
2022/09/02 07:05:42;;;;;;;7.38;4.75;;;;;;;;;;4750483;30;20028;-67
2022/09/02 07:08:09;;;;;;;14.95;5.25;;;;;;;;;;4750887;30;20050;-67
2022/09/02 07:10:38;;;;;;;7.22;4.82;;;;;;;;;;4749519;30;20033;-68
2022/09/02 07:13:05;;;;;;;7.07;4.78;;;;;;;;;;4743807;30;20037;-67
2022/09/02 07:15:31;;;;;;;8.75;5.22;;;;;;;;;;4732240;30;20029;-67
2022/09/02 07:17:58;;;;;;;12.02;5.00;;;;;;;;;;4733101;30;20049;-67
2022/09/02 07:20:24;;;;;;;8.75;5.32;;;;;;;;;;4732962;30;20033;-67
2022/09/02 07:22:51;;;;;;;11.40;5.10;;;;;;;;;;4732970;30;20041;-68
2022/09/02 07:25:17;;;;;;;9.75;5.47;;;;;;;;;;4738539;30;20406;-67
2022/09/02 07:27:44;;;;;;;9.00;5.35;;;;;;;;;;4737070;30;20484;-67
2022/09/02 07:30:12;;;;;;;13.10;5.18;;;;;;;;;;4734090;30;20035;-72
2022/09/02 07:32:38;;;;;;;11.68;5.07;;;;;;;;;;4749250;30;20033;-72
2022/09/02 07:35:06;;;;;;;7.63;5.45;;;;;;;;;;4757328;30;20055;-71
2022/09/02 07:37:33;;;;;;;9.43;5.30;;;;;;;;;;4753126;30;20039;-68
2022/09/02 07:40:00;;;;;;;7.68;5.80;;;;;;;;;;4753472;30;20054;-67
2022/09/02 07:42:27;;;;;;;10.13;5.20;;;;;;;;;;4753605;30;20526;-69
2022/09/02 07:44:53;;;;;;;9.57;5.63;;;;;;;;;;4752379;30;20036;-68
2022/09/02 07:47:19;;;;;;;11.77;5.38;;;;;;;;;;4753130;30;20044;-68
2022/09/02 07:49:46;;;;;;;10.05;5.30;;;;;;;;;;4767335;30;20490;-69
2022/09/02 07:52:12;;;;;;;13.20;4.80;;;;;;;;;;4753423;30;20402;-68
2022/09/02 07:54:39;;;;;;;10.20;5.32;;;;;;;;;;4753230;30;20036;-67
2022/09/02 07:57:05;;;;;;;8.70;4.90;;;;;;;;;;4753780;30;20040;-67
2022/09/02 07:59:31;;;;;;;8.43;5.25;;;;;;;;;;4746440;30;20406;-67
2022/09/02 08:01:58;;;;;;;6.43;4.63;;;;;;;;;;4735982;30;20506;-66
2022/09/02 08:04:24;;;;;;;7.47;5.18;;;;;;;;;;4735942;30;20025;-68
2022/09/02 08:06:52;;;;;;;6.60;4.97;;;;;;;;;;4735916;30;20033;-67
2022/09/02 08:09:18;;;;;;;8.10;4.82;;;;;;;;;;4740070;30;20028;-69
2022/09/02 08:11:46;;;;;;;8.63;4.97;;;;;;;;;;4737829;30;20116;-69
2022/09/02 08:14:16;;;;;;;7.60;4.25;;;;;;;;;;4753021;30;20038;-68
2022/09/02 08:16:43;;;;;;;16.05;4.95;;;;;;;;;;4753075;30;20538;-66
2022/09/02 08:19:10;;;;;;;11.82;4.88;;;;;;;;;;4746760;30;20086;-68
2022/09/02 08:21:36;;;;;;;14.13;5.13;;;;;;;;;;4752225;30;20162;-67
2022/09/02 08:24:04;;;;;;;15.43;4.43;;;;;;;;;;4752218;30;20422;-67
2022/09/02 08:26:30;;;;;;;14.85;4.50;;;;;;;;;;4749013;30;20031;-69
2022/09/02 08:28:57;;;;;;;7.00;4.55;;;;;;;;;;4752118;30;20026;-66
2022/09/02 08:31:24;;;;;;;9.10;4.50;;;;;;;;;;4762901;30;20049;-68
2022/09/02 08:33:51;;;;;;;7.85;4.10;;;;;;;;;;4751748;30;20040;-68
2022/09/02 08:36:17;;;;;;;12.70;4.75;;;;;;;;;;4750890;30;20040;-70
2022/09/02 08:38:44;;;;;;;13.00;4.03;;;;;;;;;;4766071;30;20035;-68
2022/09/02 08:41:16;;;;;;;9.45;4.28;;;;;;;;;;4751809;30;20277;-70
2022/09/02 08:43:44;;;;;;;9.35;4.53;;;;;;;;;;4744082;30;20152;-70
2022/09/02 08:46:13;;;;;;;7.93;4.10;;;;;;;;;;4735178;30;20041;-69
2022/09/02 08:48:52;;;;;;;4.57;3.80;;;;;;;;;;4763348;30;20040;-69
2022/09/02 08:51:24;;;;;;;10.05;4.32;;;;;;;;;;4769783;30;20040;-69
2022/09/02 08:53:51;;;;;;;7.50;4.05;;;;;;;;;;4759054;30;20024;-70
2022/09/02 08:56:18;;;;;;;9.15;4.30;;;;;;;;;;4751484;30;20042;-69
2022/09/02 08:58:48;;;;;;;8.80;4.38;;;;;;;;;;4766336;30;20032;-76
2022/09/02 09:01:20;;;;;;;11.55;4.40;;;;;;;;;;4752966;30;20596;-75
2022/09/02 09:04:05;;;;;;;6.45;4.45;;;;;;;;;;4752367;30;20491;-75
2022/09/02 09:06:37;;;;;;;10.35;4.22;;;;;;;;;;4756405;30;20448;-76
2022/09/02 09:09:07;;;;;;;8.13;4.57;;;;;;;;;;4734755;30;20043;-76
2022/09/02 09:11:38;;;;;;;9.27;4.80;;;;;;;;;;4734473;30;20024;-76
2022/09/02 09:14:07;;;;;;;41.30;6.38;;;;;;;;;;4734703;30;20037;-76
2022/09/02 09:16:41;;;;;;;27.65;7.35;;;;;;;;;;4740463;30;20028;-75
2022/09/02 09:19:13;;;;;;;26.42;8.93;;;;;;;;;;4751368;30;20060;-76
2022/09/02 09:21:40;;;;;;;23.38;8.77;;;;;;;;;;4750617;30;20047;-77
2022/09/02 09:24:09;;;;;;;125.68;21.27;;;;;;;;;;4747676;30;20020;-78
2022/09/02 09:26:39;;;;;;;51.13;15.85;;;;;;;;;;4737497;30;20025;-78
2022/09/02 09:29:06;;;;;;;31.02;11.60;;;;;;;;;;4760717;30;20038;-77
2022/09/02 09:31:34;;;;;;;33.92;12.88;;;;;;;;;;4765650;30;20040;-76
2022/09/02 09:34:00;;;;;;;23.55;12.73;;;;;;;;;;4739924;30;20035;-76
2022/09/02 09:36:39;;;;;;;28.30;13.80;;;;;;;;;;4750737;30;20029;-77
2022/09/02 09:39:24;;;;;;;27.35;15.45;;;;;;;;;;4744813;30;20038;-75
2022/09/02 09:41:52;;;;;;;30.58;17.45;;;;;;;;;;4748322;30;20054;-74
2022/09/02 09:44:48;;;;;;;24.70;13.35;;;;;;;;;;4746658;30;20035;-76
2022/09/02 09:47:18;;;;;;;24.75;10.80;;;;;;;;;;4768499;30;20043;-75
2022/09/02 09:49:46;;;;;;;24.48;11.63;;;;;;;;;;4747013;30;20024;-75
2022/09/02 09:52:21;;;;;;;16.95;9.57;;;;;;;;;;4743328;30;20042;-75
2022/09/02 09:54:55;;;;;;;19.05;7.82;;;;;;;;;;4772250;30;20406;-75
2022/09/02 09:57:22;;;;;;;11.18;7.45;;;;;;;;;;4762040;30;20405;-76
2022/09/02 09:59:55;;;;;;;13.93;8.85;;;;;;;;;;4752508;30;20036;-76
2022/09/02 10:02:26;;;;;;;11.15;6.38;;;;;;;;;;4733969;30;20051;-76
2022/09/02 10:04:53;;;;;;;9.40;6.78;;;;;;;;;;4739735;30;20346;-76
2022/09/02 10:07:52;;;;;;;15.90;7.03;;;;;;;;;;4733786;30;20045;-77
2022/09/02 10:10:21;;;;;;;13.75;7.38;;;;;;;;;;4749283;30;20514;-77
2022/09/02 10:12:49;;;;;;;14.13;8.65;;;;;;;;;;4749307;30;20406;-76
2022/09/02 10:15:17;;;;;;;14.57;8.10;;;;;;;;;;4748695;30;20038;-77
2022/09/02 10:17:52;;;;;;;13.63;7.97;;;;;;;;;;4748767;30;20056;-77
2022/09/02 10:20:29;;;;;;;13.57;7.97;;;;;;;;;;4749331;30;20420;-76
2022/09/02 10:23:14;;;;;;;14.05;8.25;;;;;;;;;;4748953;30;20048;-77
2022/09/02 10:25:49;;;;;;;16.52;8.88;;;;;;;;;;4749050;29;20160;-77
2022/09/02 10:28:30;;;;;;;15.70;8.88;;;;;;;;;;4748930;30;20036;-77
2022/09/02 10:31:00;;;;;;;18.38;9.43;;;;;;;;;;4749229;30;20040;-77
2022/09/02 10:33:26;;;;;;;19.38;9.98;;;;;;;;;;4749089;30;20058;-77
2022/09/02 10:35:58;;;;;;;13.27;9.05;;;;;;;;;;4749316;30;20040;-77
2022/09/02 10:38:37;;;;;;;12.35;8.68;;;;;;;;;;4748574;30;20032;-77
2022/09/02 10:41:03;;;;;;;15.48;8.98;;;;;;;;;;4749020;30;20502;-77
2022/09/02 10:43:42;;;;;;;17.33;9.05;;;;;;;;;;4749142;30;20048;-77
2022/09/02 10:46:09;;;;;;;12.27;8.88;;;;;;;;;;4750367;30;20044;-77
2022/09/02 10:48:35;;;;;;;16.35;7.70;;;;;;;;;;4751007;30;20601;-77
2022/09/02 10:51:05;;;;;;;9.60;6.85;;;;;;;;;;4750951;30;20029;-77
2022/09/02 10:53:31;;;;;;;9.90;6.50;;;;;;;;;;4751315;30;20021;-78
2022/09/02 10:55:58;;;;;;;9.73;6.25;;;;;;;;;;4751258;30;20033;-76
2022/09/02 10:58:33;;;;;;;8.48;6.00;;;;;;;;;;4751159;30;20028;-76
2022/09/02 11:00:59;;;;;;;11.50;5.90;;;;;;;;;;4754535;30;20038;-75
2022/09/02 11:03:48;;;;;;;8.85;5.88;;;;;;;;;;4754818;30;20044;-76
2022/09/02 11:06:20;;;;;;;11.38;4.90;;;;;;;;;;4754869;30;20036;-76
2022/09/02 11:08:52;;;;;;;7.15;4.72;;;;;;;;;;4754739;30;20036;-77
2022/09/02 11:11:29;;;;;;;8.02;4.57;;;;;;;;;;4754721;30;20033;-76
2022/09/02 11:14:02;;;;;;;6.93;4.78;;;;;;;;;;4768352;30;20048;-79
2022/09/02 11:16:36;;;;;;;5.63;3.55;;;;;;;;;;4754473;30;20040;-80
2022/09/02 11:19:13;;;;;;;5.75;3.90;;;;;;;;;;4767943;30;20064;-78
2022/09/02 11:21:46;;;;;;;5.88;4.53;;;;;;;;;;4754314;30;20518;-79
2022/09/02 11:24:15;;;;;;;10.27;4.28;;;;;;;;;;4754523;30;20032;-79
2022/09/02 11:27:03;;;;;;;5.15;3.88;;;;;;;;;;4754656;30;20405;-78
2022/09/02 11:29:29;;;;;;;7.32;4.00;;;;;;;;;;4754253;30;20040;-77
2022/09/02 11:32:07;;;;;;;6.10;4.03;;;;;;;;;;4754521;30;20417;-82
2022/09/02 11:34:37;;;;;;;6.82;4.68;;;;;;;;;;4754465;30;20044;-76
2022/09/02 11:37:22;;;;;;;9.45;3.85;;;;;;;;;;4754456;30;20030;-76
2022/09/02 11:39:56;;;;;;;7.55;3.72;;;;;;;;;;4754230;30;20032;-78
2022/09/02 11:42:22;;;;;;;5.15;3.60;;;;;;;;;;4754063;30;20127;-78
2022/09/02 11:44:49;;;;;;;8.63;3.85;;;;;;;;;;4751750;30;20028;-76
2022/09/02 11:47:36;;;;;;;5.13;3.83;;;;;;;;;;4747530;30;20491;-77
2022/09/02 11:50:09;;;;;;;6.93;4.00;;;;;;;;;;4752599;30;20076;-77
2022/09/02 11:52:39;;;;;;;10.40;3.90;;;;;;;;;;4752106;30;20536;-75
2022/09/02 11:55:16;;;;;;;6.22;3.80;;;;;;;;;;4753766;30;20042;-76
2022/09/02 11:57:43;;;;;;;6.95;4.20;;;;;;;;;;4750047;30;20482;-76
2022/09/02 12:00:24;;;;;;;8.75;3.97;;;;;;;;;;4753887;30;20032;-76
2022/09/02 12:02:55;;;;;;;10.20;4.40;;;;;;;;;;4761758;30;20040;-76
2022/09/02 12:05:33;;;;;;;6.97;4.28;;;;;;;;;;4766442;30;20445;-75
2022/09/02 12:08:03;;;;;;;7.80;4.07;;;;;;;;;;4753303;30;20040;-76
2022/09/02 12:10:41;;;;;;;5.13;3.80;;;;;;;;;;4752765;30;20579;-76
2022/09/02 12:13:08;;;;;;;8.02;4.38;;;;;;;;;;4752631;30;20106;-76
2022/09/02 12:15:35;;;;;;;7.15;3.88;;;;;;;;;;4768860;30;20104;-76
2022/09/02 12:18:27;;;;;;;7.95;3.50;;;;;;;;;;4770235;30;20064;-76
2022/09/02 12:20:59;;;;;;;5.10;3.25;;;;;;;;;;4770694;30;20028;-77
2022/09/02 12:23:44;;;;;;;4.72;3.03;;;;;;;;;;4771326;30;20040;-76
2022/09/02 12:26:11;;;;;;;5.75;3.42;;;;;;;;;;4770939;30;20489;-77
2022/09/02 12:28:38;;;;;;;7.88;3.30;;;;;;;;;;4770944;30;20038;-77
2022/09/02 12:31:07;;;;;;;5.03;2.67;;;;;;;;;;4770840;30;20036;-74
2022/09/02 12:33:34;;;;;;;3.53;2.90;;;;;;;;;;4770474;30;20346;-74
2022/09/02 12:36:03;;;;;;;4.30;2.90;;;;;;;;;;4770745;30;20100;-75
2022/09/02 12:38:29;;;;;;;9.82;3.20;;;;;;;;;;4770743;30;20040;-76
2022/09/02 12:41:05;;;;;;;7.80;2.95;;;;;;;;;;4770302;30;20467;-76
2022/09/02 12:43:37;;;;;;;7.03;2.80;;;;;;;;;;4770403;30;20040;-75
2022/09/02 12:46:23;;;;;;;3.35;2.72;;;;;;;;;;4770834;30;20035;-76
2022/09/02 12:48:57;;;;;;;4.55;2.70;;;;;;;;;;4755696;30;20040;-77
2022/09/02 12:51:42;;;;;;;7.47;2.53;;;;;;;;;;4756200;30;20036;-77
2022/09/02 12:54:09;;;;;;;5.07;2.60;;;;;;;;;;4765462;30;20409;-77
2022/09/02 12:56:35;;;;;;;3.13;2.47;;;;;;;;;;4770637;30;20435;-77
2022/09/02 12:59:01;;;;;;;3.78;2.13;;;;;;;;;;4783989;30;20040;-77
2022/09/02 13:01:34;;;;;;;5.63;2.35;;;;;;;;;;4770025;30;20032;-76
2022/09/02 13:04:06;;;;;;;6.82;2.65;;;;;;;;;;4744072;30;20104;-75
2022/09/02 13:06:53;;;;;;;5.07;2.30;;;;;;;;;;4740741;30;20029;-74
2022/09/02 13:09:22;;;;;;;2.78;2.30;;;;;;;;;;4734338;30;20037;-74
2022/09/02 13:11:48;;;;;;;;;;;;;;;;;;4747496;30;20046;-74
2022/09/02 13:14:20;;;;;;;5.72;2.70;;;;;;;;;;4740560;30;20339;-74
2022/09/02 13:16:56;;;;;;;4.57;2.72;;;;;;;;;;4750128;30;20024;-75
2022/09/02 13:19:25;;;;;;;4.15;2.50;;;;;;;;;;4748742;30;20040;-75
2022/09/02 13:22:12;;;;;;;3.67;2.45;;;;;;;;;;4751002;30;20048;-75
2022/09/02 13:24:57;;;;;;;2.92;2.47;;;;;;;;;;4749243;30;20034;-75
2022/09/02 13:27:42;;;;;;;6.72;2.45;;;;;;;;;;4751947;30;20040;-76
2022/09/02 13:30:27;;;;;;;4.70;2.20;;;;;;;;;;4745037;30;20092;-77
2022/09/02 13:33:07;;;;;;;2.70;2.20;;;;;;;;;;4750920;30;20043;-76
2022/09/02 13:35:36;;;;;;;2.92;2.10;;;;;;;;;;4752211;30;20081;-77
2022/09/02 13:38:03;;;;;;;2.38;2.17;;;;;;;;;;4752232;30;20036;-75
2022/09/02 13:40:34;;;;;;;2.25;2.10;;;;;;;;;;4764987;30;20048;-75
2022/09/02 13:43:12;;;;;;;2.92;1.90;;;;;;;;;;4751714;30;20043;-75
2022/09/02 13:45:39;;;;;;;2.37;2.03;;;;;;;;;;4751762;30;20032;-75
2022/09/02 13:48:10;;;;;;;3.45;1.80;;;;;;;;;;4751791;30;20028;-74
2022/09/02 13:50:41;;;;;;;4.45;2.10;;;;;;;;;;4751811;30;20047;-74
2022/09/02 13:53:08;;;;;;;2.58;2.10;;;;;;;;;;4750703;30;20039;-73
2022/09/02 13:55:34;;;;;;;3.22;1.90;;;;;;;;;;4741161;30;20044;-74
2022/09/02 13:58:03;;;;;;;4.20;1.70;;;;;;;;;;4747463;30;20509;-74
2022/09/02 14:00:32;;;;;;;2.70;1.73;;;;;;;;;;4751043;30;20032;-72
2022/09/02 14:03:09;;;;;;;3.33;1.75;;;;;;;;;;4751445;30;20506;-73
2022/09/02 14:05:37;;;;;;;5.50;2.65;;;;;;;;;;4751614;30;20051;-74
2022/09/02 14:08:08;;;;;;;4.22;2.28;;;;;;;;;;4751770;30;20032;-73
2022/09/02 14:10:35;;;;;;;2.55;2.13;;;;;;;;;;4751455;30;20479;-74
2022/09/02 14:13:03;;;;;;;2.25;1.65;;;;;;;;;;4751273;30;20048;-75
2022/09/02 14:15:30;;;;;;;2.80;2.03;;;;;;;;;;4751198;30;20475;-73
2022/09/02 14:18:26;;;;;;;3.25;2.08;;;;;;;;;;4751274;30;20052;-74
2022/09/02 14:21:00;;;;;;;6.20;2.30;;;;;;;;;;4750404;30;20043;-74
2022/09/02 14:23:28;;;;;;;3.10;2.08;;;;;;;;;;4751390;30;20040;-73
2022/09/02 14:25:56;;;;;;;3.88;2.17;;;;;;;;;;4751110;30;20486;-74
2022/09/02 14:28:29;;;;;;;6.25;2.42;;;;;;;;;;4749540;30;20517;-72
2022/09/02 14:31:00;;;;;;;5.20;2.50;;;;;;;;;;4751217;30;20048;-74
2022/09/02 14:33:45;;;;;;;3.50;2.10;;;;;;;;;;4751254;30;20032;-74
2022/09/02 14:36:16;;;;;;;4.00;2.35;;;;;;;;;;4750877;30;20037;-74
2022/09/02 14:38:42;;;;;;;2.60;2.40;;;;;;;;;;4755940;30;20053;-73
2022/09/02 14:41:11;;;;;;;4.35;2.53;;;;;;;;;;4749296;30;20047;-74
2022/09/02 14:43:50;;;;;;;2.28;2.08;;;;;;;;;;4750526;30;20432;-74
2022/09/02 14:46:22;;;;;;;4.95;2.25;;;;;;;;;;4749445;30;20431;-73
2022/09/02 14:49:14;;;;;;;5.47;2.60;;;;;;;;;;4751052;30;20423;-73
2022/09/02 14:51:44;;;;;;;4.85;2.70;;;;;;;;;;4748838;30;20036;-74
2022/09/02 14:54:10;;;;;;;3.10;2.67;;;;;;;;;;4748746;30;20048;-74
2022/09/02 14:56:50;;;;;;;3.72;2.58;;;;;;;;;;4750365;30;20040;-74